createdAt,value
2018-12-18T00:00:42.426Z,-0.80
2018-12-18T00:03:13.788Z,-0.70
2018-12-18T00:05:45.403Z,-0.80
2018-12-18T00:08:15.004Z,-0.80
2018-12-18T00:10:49.327Z,-0.80
2018-12-18T00:13:18.846Z,-0.80
2018-12-18T00:15:48.367Z,-0.80
2018-12-18T00:18:17.884Z,-0.80
2018-12-18T00:20:47.424Z,-0.70
2018-12-18T00:25:45.990Z,-0.70
2018-12-18T00:28:15.575Z,-0.60
2018-12-18T00:30:45.079Z,-0.60
2018-12-18T00:33:14.622Z,-0.50
2018-12-18T00:35:44.175Z,-0.50
2018-12-18T00:38:13.675Z,-0.50
2018-12-18T00:40:43.195Z,-0.50
2018-12-18T00:43:12.705Z,-0.60
2018-12-18T00:45:42.630Z,-0.60
2018-12-18T00:48:12.131Z,-0.50
2018-12-18T00:50:41.634Z,-0.60
2018-12-18T00:53:11.175Z,-0.60
2018-12-18T00:55:40.679Z,-0.60
2018-12-18T00:58:10.225Z,-0.60
2018-12-18T01:00:39.990Z,-0.60
2018-12-18T01:03:09.494Z,-0.60
2018-12-18T01:05:39.035Z,-0.60
2018-12-18T01:08:08.547Z,-0.60
2018-12-18T01:10:38.035Z,-0.60
2018-12-18T01:13:07.564Z,-0.60
2018-12-18T01:15:37.062Z,-0.60
2018-12-18T01:18:07.626Z,-0.70
2018-12-18T01:20:37.121Z,-0.60
2018-12-18T01:23:06.622Z,-0.70
2018-12-18T01:25:36.175Z,-0.60
2018-12-18T01:28:05.670Z,-0.60
2018-12-18T01:30:35.306Z,-0.70
2018-12-18T01:33:04.795Z,-0.60
2018-12-18T01:35:34.290Z,-0.60
2018-12-18T01:38:03.802Z,-0.60
2018-12-18T01:40:33.678Z,-0.50
2018-12-18T01:43:03.187Z,-0.60
2018-12-18T01:45:32.686Z,-0.50
2018-12-18T01:48:02.204Z,-0.50
2018-12-18T01:50:31.702Z,-0.50
2018-12-18T01:53:01.215Z,-0.40
2018-12-18T01:55:30.720Z,-0.50
2018-12-18T01:58:00.251Z,-0.50
2018-12-18T02:00:30.866Z,-0.50
2018-12-18T02:03:00.410Z,-0.40
2018-12-18T02:05:29.911Z,-0.50
2018-12-18T02:07:59.406Z,-0.50
2018-12-18T02:10:28.934Z,-0.50
2018-12-18T02:12:58.462Z,-0.50
2018-12-18T02:15:27.967Z,-0.50
2018-12-18T02:17:57.520Z,-0.40
2018-12-18T02:20:27.286Z,-0.40
2018-12-18T02:25:25.859Z,-0.30
2018-12-18T02:27:55.405Z,-0.30
2018-12-18T02:30:24.920Z,-0.30
2018-12-18T02:32:54.446Z,-0.30
2018-12-18T02:35:23.982Z,-0.20
2018-12-18T02:37:53.570Z,-0.30
2018-12-18T02:40:23.079Z,-0.20
2018-12-18T02:42:52.603Z,-0.20
2018-12-18T02:45:22.126Z,-0.20
2018-12-18T02:47:51.634Z,-0.20
2018-12-18T02:50:21.133Z,-0.20
2018-12-18T02:52:50.646Z,-0.20
2018-12-18T02:55:20.160Z,-0.20
2018-12-18T02:57:49.691Z,-0.20
2018-12-18T03:00:19.447Z,-0.20
2018-12-18T03:02:48.947Z,-0.20
2018-12-18T03:05:18.460Z,-0.10
2018-12-18T03:07:47.999Z,-0.10
2018-12-18T03:10:17.509Z,-0.10
2018-12-18T03:12:47.022Z,-0.10
2018-12-18T03:15:16.926Z,-0.20
2018-12-18T03:17:46.435Z,-0.10
2018-12-18T03:20:15.987Z,-0.20
2018-12-18T03:22:45.559Z,-0.20
2018-12-18T03:25:15.099Z,-0.20
2018-12-18T03:27:44.615Z,-0.10
2018-12-18T03:30:14.175Z,-0.20
2018-12-18T03:32:48.888Z,-0.20
2018-12-18T03:35:18.658Z,-0.20
2018-12-18T03:37:48.166Z,-0.20
2018-12-18T03:40:17.698Z,-0.20
2018-12-18T03:42:47.201Z,-0.20
2018-12-18T03:45:16.717Z,-0.20
2018-12-18T03:47:46.254Z,-0.20
2018-12-18T03:50:15.755Z,-0.20
2018-12-18T03:52:45.266Z,-0.20
2018-12-18T03:55:14.788Z,-0.20
2018-12-18T03:57:44.297Z,-0.20
2018-12-18T04:00:14.286Z,-0.20
2018-12-18T04:02:43.786Z,-0.20
2018-12-18T04:05:13.771Z,-0.20
2018-12-18T04:07:43.275Z,-0.20
2018-12-18T04:10:12.847Z,-0.20
2018-12-18T04:12:42.347Z,-0.20
2018-12-18T04:15:11.871Z,-0.20
2018-12-18T04:17:41.395Z,-0.30
2018-12-18T04:20:10.910Z,-0.30
2018-12-18T04:22:40.409Z,-0.30
2018-12-18T04:25:09.981Z,-0.30
2018-12-18T04:27:39.498Z,-0.30
2018-12-18T04:30:09.483Z,-0.30
2018-12-18T04:32:39.011Z,-0.20
2018-12-18T04:35:10.674Z,-0.30
2018-12-18T04:37:40.158Z,-0.30
2018-12-18T04:40:09.690Z,-0.30
2018-12-18T04:42:39.206Z,-0.30
2018-12-18T04:45:08.803Z,-0.20
2018-12-18T04:47:38.319Z,-0.20
2018-12-18T04:50:08.271Z,-0.20
2018-12-18T04:52:37.806Z,-0.20
2018-12-18T04:55:07.320Z,-0.20
2018-12-18T04:57:36.814Z,-0.10
2018-12-18T05:00:08.342Z,-0.10
2018-12-18T05:02:37.883Z,-0.20
2018-12-18T05:05:07.867Z,-0.10
2018-12-18T05:07:37.366Z,-0.10
2018-12-18T05:10:07.359Z,-0.10
2018-12-18T05:12:36.879Z,-0.20
2018-12-18T05:15:06.446Z,-0.10
2018-12-18T05:17:35.966Z,-0.10
2018-12-18T05:20:06.059Z,-0.10
2018-12-18T05:22:35.551Z,-0.10
2018-12-18T05:25:05.086Z,-0.10
2018-12-18T05:27:34.654Z,-0.10
2018-12-18T05:30:06.235Z,-0.10
2018-12-18T05:32:35.771Z,0.00
2018-12-18T05:35:06.066Z,-0.10
2018-12-18T05:37:35.570Z,0.00
2018-12-18T05:40:05.975Z,-0.10
2018-12-18T05:42:35.474Z,-0.10
2018-12-18T05:45:05.432Z,0.00
2018-12-18T05:47:34.934Z,0.00
2018-12-18T05:50:04.994Z,0.00
2018-12-18T05:52:34.775Z,0.00
2018-12-18T05:55:04.800Z,0.00
2018-12-18T05:57:34.488Z,0.10
2018-12-18T06:00:05.050Z,0.00
2018-12-18T06:02:34.638Z,0.10
2018-12-18T06:05:04.783Z,0.10
2018-12-18T06:07:34.303Z,0.10
2018-12-18T06:12:33.627Z,0.10
2018-12-18T06:15:03.623Z,0.00
2018-12-18T06:17:33.116Z,0.00
2018-12-18T06:20:02.690Z,0.00
2018-12-18T06:22:32.438Z,0.00
2018-12-18T06:25:17.282Z,0.00
2018-12-18T06:27:47.061Z,0.00
2018-12-18T06:30:17.448Z,0.00
2018-12-18T06:32:47.170Z,0.00
2018-12-18T06:35:16.678Z,0.00
2018-12-18T06:37:46.250Z,0.00
2018-12-18T06:40:15.865Z,0.10
2018-12-18T06:42:45.411Z,0.10
2018-12-18T06:45:14.927Z,0.10
2018-12-18T06:47:44.544Z,0.10
2018-12-18T06:50:14.119Z,0.10
2018-12-18T06:52:43.643Z,0.10
2018-12-18T06:55:13.643Z,0.10
2018-12-18T06:57:43.199Z,0.20
2018-12-18T07:00:13.049Z,0.20
2018-12-18T07:02:42.572Z,0.30
2018-12-18T07:05:16.700Z,0.20
2018-12-18T07:07:43.600Z,0.30
2018-12-18T07:10:13.578Z,0.30
2018-12-18T07:12:43.062Z,0.30
2018-12-18T07:15:12.603Z,0.30
2018-12-18T07:17:42.094Z,0.30
2018-12-18T07:20:11.626Z,0.30
2018-12-18T07:22:41.136Z,0.30
2018-12-18T07:25:10.635Z,0.40
2018-12-18T07:27:40.136Z,0.40
2018-12-18T07:30:10.151Z,0.50
2018-12-18T07:35:08.708Z,0.60
2018-12-18T07:37:38.202Z,0.60
2018-12-18T07:40:08.238Z,0.70
2018-12-18T07:42:37.733Z,0.70
2018-12-18T07:45:07.288Z,0.70
2018-12-18T07:47:36.821Z,0.80
2018-12-18T07:50:06.818Z,0.80
2018-12-18T07:52:36.315Z,0.80
2018-12-18T07:55:05.834Z,0.80
2018-12-18T07:57:35.337Z,0.90
2018-12-18T08:00:05.904Z,0.90
2018-12-18T08:02:35.398Z,0.90
2018-12-18T08:05:05.367Z,0.90
2018-12-18T08:07:34.876Z,0.90
2018-12-18T08:10:05.542Z,1.00
2018-12-18T08:12:35.037Z,1.10
2018-12-18T08:15:05.223Z,1.20
2018-12-18T08:17:34.750Z,1.40
2018-12-18T08:20:04.755Z,1.40
2018-12-18T08:22:35.366Z,1.40
2018-12-18T08:25:06.250Z,1.40
2018-12-18T08:27:35.798Z,1.50
2018-12-18T08:30:06.942Z,1.60
2018-12-18T08:32:36.465Z,1.60
2018-12-18T08:35:06.894Z,1.60
2018-12-18T08:37:36.443Z,1.60
2018-12-18T08:40:07.178Z,1.60
2018-12-18T08:42:36.710Z,1.50
2018-12-18T08:45:09.370Z,1.50
2018-12-18T08:47:38.911Z,1.60
2018-12-18T08:50:09.658Z,1.60
2018-12-18T08:52:39.182Z,1.70
2018-12-18T08:55:08.742Z,1.60
2018-12-18T08:57:38.232Z,1.60
2018-12-18T09:00:09.743Z,1.50
2018-12-18T09:02:39.244Z,1.40
2018-12-18T09:05:08.795Z,1.40
2018-12-18T09:07:38.303Z,1.40
2018-12-18T09:10:09.754Z,1.40
2018-12-18T09:12:39.279Z,1.40
2018-12-18T09:15:15.149Z,1.50
2018-12-18T09:17:48.162Z,1.50
2018-12-18T09:20:17.699Z,1.60
2018-12-18T09:22:47.758Z,1.60
2018-12-18T09:25:17.270Z,1.60
2018-12-18T09:27:46.794Z,1.70
2018-12-18T09:30:16.324Z,1.70
2018-12-18T09:32:45.842Z,1.80
2018-12-18T09:35:15.350Z,1.80
2018-12-18T09:37:44.907Z,1.80
2018-12-18T09:40:16.446Z,1.80
2018-12-18T09:42:51.361Z,1.90
2018-12-18T09:45:20.963Z,1.90
2018-12-18T09:47:50.459Z,1.90
2018-12-18T09:50:19.971Z,2.00
2018-12-18T09:52:49.478Z,2.00
2018-12-18T09:55:19.010Z,2.00
2018-12-18T09:57:53.874Z,1.90
2018-12-18T10:00:23.494Z,1.90
2018-12-18T10:02:53.010Z,2.00
2018-12-18T10:05:22.543Z,2.10
2018-12-18T10:07:53.143Z,2.10
2018-12-18T10:10:22.651Z,2.10
2018-12-18T10:12:55.530Z,2.10
2018-12-18T10:15:26.053Z,2.10
2018-12-18T10:17:55.554Z,2.00
2018-12-18T10:20:25.059Z,2.00
2018-12-18T10:22:55.586Z,2.00
2018-12-18T10:25:25.086Z,1.80
2018-12-18T10:27:54.614Z,1.90
2018-12-18T10:30:24.114Z,1.90
2018-12-18T10:32:53.614Z,1.80
2018-12-18T10:35:23.116Z,1.80
2018-12-18T10:37:52.651Z,1.80
2018-12-18T10:40:22.192Z,1.90
2018-12-18T10:42:51.687Z,1.90
2018-12-18T10:45:21.960Z,1.90
2018-12-18T10:47:51.503Z,1.90
2018-12-18T10:50:21.030Z,1.90
2018-12-18T10:52:50.527Z,2.00
2018-12-18T10:55:20.034Z,2.00
2018-12-18T10:57:49.561Z,2.00
2018-12-18T11:00:24.706Z,2.10
2018-12-18T11:02:54.259Z,2.00
2018-12-18T11:05:23.761Z,2.00
2018-12-18T11:07:53.258Z,2.00
2018-12-18T11:10:22.768Z,1.90
2018-12-18T11:12:57.479Z,1.90
2018-12-18T11:15:27.014Z,1.90
2018-12-18T11:17:56.791Z,1.90
2018-12-18T11:20:26.319Z,2.00
2018-12-18T11:22:55.827Z,2.00
2018-12-18T11:25:25.337Z,2.00
2018-12-18T11:27:54.858Z,2.00
2018-12-18T11:30:24.362Z,2.10
2018-12-18T11:32:53.866Z,2.00
2018-12-18T11:35:23.428Z,2.10
2018-12-18T11:37:52.935Z,2.10
2018-12-18T11:40:22.486Z,2.10
2018-12-18T11:42:52.003Z,2.10
2018-12-18T11:45:21.498Z,2.00
2018-12-18T11:47:51.018Z,2.00
2018-12-18T11:50:20.522Z,2.00
2018-12-18T11:52:50.027Z,2.10
2018-12-18T11:55:19.529Z,2.10
2018-12-18T11:57:49.034Z,2.10
2018-12-18T12:00:18.555Z,2.10
2018-12-18T12:02:48.067Z,2.10
2018-12-18T12:05:19.346Z,2.00
2018-12-18T12:07:48.854Z,2.00
2018-12-18T12:10:18.347Z,2.00
2018-12-18T12:12:47.872Z,2.00
2018-12-18T12:15:17.374Z,2.00
2018-12-18T12:20:15.994Z,2.00
2018-12-18T12:22:45.482Z,2.10
2018-12-18T12:25:15.038Z,2.00
2018-12-18T12:27:49.548Z,2.00
2018-12-18T12:30:19.056Z,2.00
2018-12-18T12:32:48.593Z,1.90
2018-12-18T12:35:18.103Z,1.90
2018-12-18T12:37:47.599Z,1.90
2018-12-18T12:40:17.139Z,1.90
2018-12-18T12:42:46.710Z,1.90
2018-12-18T12:45:16.248Z,1.90
2018-12-18T12:47:49.167Z,1.90
2018-12-18T12:50:18.671Z,2.00
2018-12-18T12:52:48.406Z,2.00
2018-12-18T12:55:17.946Z,2.00
2018-12-18T12:57:47.453Z,2.00
2018-12-18T13:02:46.092Z,2.10
2018-12-18T13:05:15.602Z,2.00
2018-12-18T13:07:45.095Z,2.10
2018-12-18T13:10:14.637Z,2.10
2018-12-18T13:12:44.142Z,2.00
2018-12-18T13:15:13.646Z,2.00
2018-12-18T13:17:43.151Z,2.00
2018-12-18T13:20:12.662Z,2.10
2018-12-18T13:22:43.724Z,2.10
2018-12-18T13:25:13.591Z,2.10
2018-12-18T13:27:43.079Z,2.10
2018-12-18T13:30:12.599Z,2.10
2018-12-18T13:32:42.135Z,2.00
2018-12-18T13:35:12.008Z,2.00
2018-12-18T13:37:41.507Z,2.00
2018-12-18T13:40:11.057Z,2.00
2018-12-18T13:42:40.554Z,2.00
2018-12-18T13:45:10.051Z,1.90
2018-12-18T13:47:39.570Z,1.90
2018-12-18T13:50:09.100Z,2.00
2018-12-18T13:52:38.620Z,1.90
2018-12-18T13:55:08.162Z,1.90
2018-12-18T13:57:37.662Z,1.90
2018-12-18T14:00:08.236Z,1.90
2018-12-18T14:02:37.948Z,1.90
2018-12-18T14:05:07.490Z,1.90
2018-12-18T14:10:07.554Z,1.90
2018-12-18T14:15:07.022Z,1.90
2018-12-18T14:17:36.559Z,1.90
2018-12-18T14:20:06.908Z,1.90
2018-12-18T14:22:36.422Z,1.80
2018-12-18T14:25:05.970Z,1.80
2018-12-18T14:27:35.466Z,1.80
2018-12-18T14:30:06.122Z,1.80
2018-12-18T14:32:35.629Z,1.80
2018-12-18T14:35:05.196Z,1.80
2018-12-18T14:37:34.718Z,1.80
2018-12-18T14:40:04.755Z,1.70
2018-12-18T14:42:34.324Z,1.80
2018-12-18T14:45:04.341Z,1.70
2018-12-18T14:47:33.907Z,1.80
2018-12-18T14:50:05.079Z,1.70
2018-12-18T14:52:34.593Z,1.70
2018-12-18T14:55:04.267Z,1.70
2018-12-18T14:57:33.771Z,1.70
2018-12-18T15:00:04.239Z,1.70
2018-12-18T15:02:33.743Z,1.70
2018-12-18T15:05:03.270Z,1.70
2018-12-18T15:07:32.837Z,1.70
2018-12-18T15:10:02.375Z,1.70
2018-12-18T15:12:31.885Z,1.70
2018-12-18T15:15:01.454Z,1.80
2018-12-18T15:17:30.954Z,1.80
2018-12-18T15:20:00.458Z,1.90
2018-12-18T15:22:29.988Z,1.80
2018-12-18T15:24:59.490Z,1.90
2018-12-18T15:29:58.078Z,1.90
2018-12-18T19:58:44.336Z,2.40
2018-12-18T20:01:13.893Z,2.30
2018-12-18T20:03:43.438Z,2.30
2018-12-18T20:06:12.974Z,2.30
2018-12-18T20:08:42.498Z,2.30
2018-12-18T20:11:12.227Z,2.30
2018-12-18T20:13:41.739Z,2.30
2018-12-18T20:16:11.354Z,2.30
2018-12-18T20:21:11.421Z,2.20
2018-12-18T20:23:41.395Z,2.20
2018-12-18T20:26:11.942Z,2.20
2018-12-18T20:28:41.480Z,2.20
2018-12-18T20:31:11.007Z,2.20
2018-12-18T20:33:40.499Z,2.20
2018-12-18T20:36:10.023Z,2.20
2018-12-18T20:41:08.598Z,2.10
2018-12-18T20:43:38.131Z,2.10
2018-12-18T20:46:07.638Z,2.10
2018-12-18T20:48:37.147Z,2.10
2018-12-18T20:51:06.673Z,2.10
2018-12-18T20:53:37.978Z,2.10
2018-12-18T20:56:07.516Z,2.10
2018-12-18T20:58:37.015Z,2.10
2018-12-18T21:01:06.523Z,2.10
2018-12-18T21:03:36.058Z,2.10
2018-12-18T21:13:32.891Z,2.20
2018-12-18T21:16:03.279Z,2.20
2018-12-18T21:18:33.260Z,2.20
2018-12-18T21:21:02.762Z,2.20
2018-12-18T21:26:04.975Z,2.20
2018-12-18T21:28:38.971Z,2.10
2018-12-18T21:31:08.716Z,2.20
2018-12-18T21:33:38.234Z,2.20
2018-12-18T21:36:07.812Z,2.20
2018-12-18T21:38:37.615Z,2.20
2018-12-18T21:41:07.207Z,2.10
2018-12-18T21:46:05.956Z,2.20
2018-12-18T21:48:36.057Z,2.20
2018-12-18T21:51:05.753Z,2.10
2018-12-18T21:53:35.412Z,2.10
2018-12-18T21:56:05.977Z,2.20
2018-12-18T21:58:35.593Z,2.10
2018-12-18T22:01:05.085Z,2.20
2018-12-18T22:03:34.723Z,2.10
2018-12-18T22:06:04.229Z,2.20
2018-12-18T22:08:36.874Z,2.10
2018-12-18T22:11:05.279Z,2.10
2018-12-18T22:13:35.330Z,2.10
2018-12-18T22:16:04.841Z,2.10
2018-12-18T22:18:34.391Z,2.10
2018-12-18T22:21:03.905Z,2.10
2018-12-18T22:23:33.545Z,2.00
2018-12-18T22:26:03.267Z,2.10
2018-12-18T22:28:34.680Z,2.10
2018-12-18T22:31:13.006Z,2.10
2018-12-18T22:33:46.842Z,2.00
2018-12-18T22:36:16.443Z,2.10
2018-12-18T22:38:46.961Z,2.00
2018-12-18T22:41:16.467Z,2.10
2018-12-18T22:43:45.987Z,2.00
2018-12-18T22:46:16.218Z,2.00
2018-12-18T22:48:45.819Z,2.00
2018-12-18T22:51:15.307Z,1.90
2018-12-18T22:53:44.906Z,1.90
2018-12-18T22:56:14.447Z,1.90
2018-12-18T22:58:43.953Z,1.90
2018-12-18T23:01:18.102Z,1.90
2018-12-18T23:03:47.622Z,1.90
2018-12-18T23:06:17.386Z,1.90
2018-12-18T23:08:50.182Z,1.90
2018-12-18T23:11:18.441Z,2.00
2018-12-18T23:13:47.987Z,1.80
2018-12-18T23:18:46.595Z,1.80
2018-12-18T23:21:16.531Z,1.70
2018-12-18T23:23:46.037Z,1.60
2018-12-18T23:26:15.583Z,1.50
2018-12-18T23:28:45.107Z,1.30
2018-12-18T23:31:14.610Z,1.20
2018-12-18T23:33:44.102Z,1.10
2018-12-18T23:36:13.599Z,1.00
2018-12-18T23:38:43.192Z,0.90
2018-12-18T23:41:12.695Z,0.90
2018-12-18T23:43:42.186Z,0.90
2018-12-18T23:46:11.683Z,0.90
2018-12-18T23:48:41.171Z,0.80
2018-12-18T23:51:10.675Z,0.80
2018-12-18T23:53:40.178Z,0.80
2018-12-18T23:56:09.726Z,0.70
2018-12-18T23:58:39.223Z,0.60
